Time;durP1;ratioP1;P1;durP2;ratioP2;P2;SDS_P1;SDS_P2;PMS_P1;PMS_P2;Temp;Humidity;BMP_temperature;BMP_pressure;BME280_temperature;BME280_humidity;BME280_pressure;Samples;Min_cycle;Max_cycle;Signal;HPM_P1;HPM_P2
2023/09/12 00:00:07;;;;;;;10.73;6.03;;;;;;;;;;5051198;28;20014;-82
2023/09/12 00:02:39;;;;;;;10.00;6.45;;;;;;;;;;5039151;28;20418;-83
2023/09/12 00:05:05;;;;;;;7.30;6.20;;;;;;;;;;5039964;28;20029;-82
2023/09/12 00:07:30;;;;;;;10.98;6.72;;;;;;;;;;5036665;28;20083;-82
2023/09/12 00:09:56;;;;;;;8.90;6.25;;;;;;;;;;5035540;28;20021;-82
2023/09/12 00:12:23;;;;;;;9.98;6.72;;;;;;;;;;5037550;28;20501;-82
2023/09/12 00:14:49;;;;;;;7.32;6.30;;;;;;;;;;5049723;28;20025;-82
2023/09/12 00:17:14;;;;;;;7.45;6.63;;;;;;;;;;5046995;28;20103;-84
2023/09/12 00:19:40;;;;;;;8.07;6.40;;;;;;;;;;5044283;28;20033;-84
2023/09/12 00:22:05;;;;;;;9.55;6.32;;;;;;;;;;5038390;28;20056;-82
2023/09/12 00:24:30;;;;;;;8.27;6.40;;;;;;;;;;5039520;28;20030;-82
2023/09/12 00:26:56;;;;;;;8.88;6.65;;;;;;;;;;5037271;28;20037;-82
2023/09/12 00:29:21;;;;;;;10.45;6.85;;;;;;;;;;5035314;28;20037;-82
2023/09/12 00:31:47;;;;;;;9.02;6.30;;;;;;;;;;5035117;28;20486;-83
2023/09/12 00:34:17;;;;;;;12.95;6.60;;;;;;;;;;5046013;28;20102;-84
2023/09/12 00:36:42;;;;;;;10.80;6.32;;;;;;;;;;5046135;28;20483;-83
2023/09/12 00:39:08;;;;;;;7.75;6.60;;;;;;;;;;5050709;28;20029;-83
2023/09/12 00:41:33;;;;;;;7.15;6.18;;;;;;;;;;5040372;28;20033;-83
2023/09/12 00:43:59;;;;;;;7.07;6.20;;;;;;;;;;5042466;28;20037;-83
2023/09/12 00:46:25;;;;;;;10.23;6.50;;;;;;;;;;5051118;28;20541;-83
2023/09/12 00:48:53;;;;;;;11.40;6.60;;;;;;;;;;5042202;28;20029;-83
2023/09/12 00:51:21;;;;;;;8.35;6.60;;;;;;;;;;5050056;28;20036;-83
2023/09/12 00:53:47;;;;;;;7.75;6.10;;;;;;;;;;5041602;28;20036;-83
2023/09/12 00:56:13;;;;;;;10.32;6.57;;;;;;;;;;5051748;28;20152;-83
2023/09/12 00:58:39;;;;;;;7.28;6.20;;;;;;;;;;5050599;28;20112;-84
2023/09/12 01:01:05;;;;;;;10.05;6.63;;;;;;;;;;5046808;28;20045;-82
2023/09/12 01:03:32;;;;;;;11.23;7.10;;;;;;;;;;5036224;28;20021;-82
2023/09/12 01:05:59;;;;;;;7.80;6.43;;;;;;;;;;5039841;28;20033;-81
2023/09/12 01:08:25;;;;;;;8.90;7.15;;;;;;;;;;5048729;28;20171;-82
2023/09/12 01:10:53;;;;;;;7.30;6.45;;;;;;;;;;5034085;28;20538;-82
2023/09/12 01:13:19;;;;;;;9.32;6.03;;;;;;;;;;5049422;28;20043;-83
2023/09/12 01:15:44;;;;;;;8.27;6.47;;;;;;;;;;5048281;28;20115;-83
2023/09/12 01:18:11;;;;;;;13.13;6.90;;;;;;;;;;5040504;28;20814;-83
2023/09/12 01:20:40;;;;;;;11.40;7.00;;;;;;;;;;5042384;28;20033;-82
2023/09/12 01:23:25;;;;;;;8.18;6.93;;;;;;;;;;5061751;28;20056;-82
2023/09/12 01:26:16;;;;;;;9.50;6.43;;;;;;;;;;5048475;28;20046;-82
2023/09/12 01:28:44;;;;;;;8.07;6.75;;;;;;;;;;5036818;28;20025;-83
2023/09/12 01:31:12;;;;;;;9.32;6.28;;;;;;;;;;5035225;28;20033;-82
2023/09/12 01:33:37;;;;;;;7.50;6.43;;;;;;;;;;5041713;28;20029;-82
2023/09/12 01:36:03;;;;;;;7.88;6.22;;;;;;;;;;5050396;28;20039;-83
2023/09/12 01:38:29;;;;;;;9.13;6.28;;;;;;;;;;5043835;28;20426;-82
2023/09/12 01:40:55;;;;;;;8.95;6.78;;;;;;;;;;5044166;28;20025;-82
2023/09/12 01:43:24;;;;;;;9.45;6.30;;;;;;;;;;5037249;28;20475;-83
2023/09/12 01:45:55;;;;;;;8.82;6.28;;;;;;;;;;5038683;28;20077;-83
2023/09/12 01:48:26;;;;;;;8.27;6.60;;;;;;;;;;5036283;28;20075;-83
2023/09/12 01:50:52;;;;;;;8.68;6.30;;;;;;;;;;5034255;28;20029;-83
2023/09/12 01:53:19;;;;;;;8.60;6.30;;;;;;;;;;5040771;28;20096;-83
2023/09/12 01:55:46;;;;;;;9.30;6.43;;;;;;;;;;5048152;28;20021;-81
2023/09/12 01:58:13;;;;;;;9.88;6.72;;;;;;;;;;5049647;28;20057;-82
2023/09/12 02:00:40;;;;;;;8.23;6.75;;;;;;;;;;5045194;28;20576;-81
2023/09/12 02:03:05;;;;;;;6.88;6.00;;;;;;;;;;5040351;28;20120;-82
2023/09/12 02:05:31;;;;;;;9.35;6.80;;;;;;;;;;5040881;28;20053;-83
2023/09/12 02:07:56;;;;;;;9.45;6.78;;;;;;;;;;5043043;28;20048;-84
2023/09/12 02:10:22;;;;;;;11.40;6.68;;;;;;;;;;5034143;28;20481;-84
2023/09/12 02:12:48;;;;;;;10.60;6.90;;;;;;;;;;5035650;28;20029;-82
2023/09/12 02:15:13;;;;;;;8.52;6.13;;;;;;;;;;5048471;28;20463;-82
2023/09/12 02:17:39;;;;;;;9.30;6.72;;;;;;;;;;5048315;28;20033;-82
2023/09/12 02:20:07;;;;;;;8.40;6.28;;;;;;;;;;5043559;28;20026;-82
2023/09/12 02:22:32;;;;;;;7.65;6.60;;;;;;;;;;5047623;28;20055;-83
2023/09/12 02:24:58;;;;;;;7.88;6.45;;;;;;;;;;5048426;28;20482;-84
2023/09/12 02:27:23;;;;;;;7.10;6.18;;;;;;;;;;5046971;28;20116;-83
2023/09/12 02:29:49;;;;;;;11.10;6.63;;;;;;;;;;5035278;28;20017;-82
2023/09/12 02:32:15;;;;;;;6.65;5.95;;;;;;;;;;5030921;28;20497;-81
2023/09/12 02:34:40;;;;;;;9.15;6.55;;;;;;;;;;5048845;28;20036;-81
2023/09/12 02:37:06;;;;;;;9.00;6.60;;;;;;;;;;5044493;28;20079;-81
2023/09/12 02:39:31;;;;;;;10.10;6.93;;;;;;;;;;5049126;28;20395;-81
2023/09/12 02:41:57;;;;;;;9.23;6.65;;;;;;;;;;5042049;28;20025;-83
2023/09/12 02:44:22;;;;;;;10.02;6.70;;;;;;;;;;5048267;28;20056;-83
2023/09/12 02:46:48;;;;;;;9.50;6.30;;;;;;;;;;5044100;28;20037;-83
2023/09/12 02:49:14;;;;;;;10.65;6.10;;;;;;;;;;5045203;28;20041;-80
2023/09/12 02:51:41;;;;;;;8.70;6.28;;;;;;;;;;5033426;28;20045;-81
2023/09/12 02:54:06;;;;;;;9.88;6.40;;;;;;;;;;5047621;28;20376;-82
2023/09/12 02:56:32;;;;;;;8.75;6.20;;;;;;;;;;5051793;28;20111;-82
2023/09/12 02:58:57;;;;;;;9.05;6.93;;;;;;;;;;5047259;28;20037;-84
2023/09/12 03:01:26;;;;;;;9.07;6.72;;;;;;;;;;5049549;28;20029;-84
2023/09/12 03:03:52;;;;;;;10.77;6.80;;;;;;;;;;5050234;28;20057;-83
2023/09/12 03:06:20;;;;;;;8.80;6.53;;;;;;;;;;5051556;28;20060;-81
2023/09/12 03:08:46;;;;;;;7.85;6.47;;;;;;;;;;5048054;28;20471;-81
2023/09/12 03:11:12;;;;;;;7.57;6.53;;;;;;;;;;5037719;28;20479;-83
2023/09/12 03:13:40;;;;;;;7.40;6.28;;;;;;;;;;5049449;28;20032;-81
2023/09/12 03:16:10;;;;;;;9.38;6.90;;;;;;;;;;5048771;28;20025;-81
2023/09/12 03:18:35;;;;;;;8.45;6.90;;;;;;;;;;5043610;28;20037;-82
2023/09/12 03:21:00;;;;;;;8.85;6.68;;;;;;;;;;5038852;28;20479;-83
2023/09/12 03:23:27;;;;;;;8.98;6.80;;;;;;;;;;5048138;28;20087;-83
2023/09/12 03:25:52;;;;;;;7.75;6.15;;;;;;;;;;5048102;28;20614;-83
2023/09/12 03:28:18;;;;;;;7.55;6.38;;;;;;;;;;5050820;28;20064;-82
2023/09/12 03:30:43;;;;;;;9.38;6.90;;;;;;;;;;5038099;28;20121;-83
2023/09/12 03:33:09;;;;;;;9.05;6.28;;;;;;;;;;5045754;28;20036;-82
2023/09/12 03:35:35;;;;;;;9.60;6.45;;;;;;;;;;5051685;28;20552;-82
2023/09/12 03:38:01;;;;;;;10.25;6.63;;;;;;;;;;5045739;28;20036;-82
2023/09/12 03:40:30;;;;;;;7.95;6.60;;;;;;;;;;5051622;28;20113;-82
2023/09/12 03:42:56;;;;;;;8.57;6.38;;;;;;;;;;5043586;28;20029;-82
2023/09/12 03:45:22;;;;;;;8.43;6.68;;;;;;;;;;5048631;28;20053;-82
2023/09/12 03:47:48;;;;;;;9.75;6.90;;;;;;;;;;5049824;28;20048;-83
2023/09/12 03:50:14;;;;;;;9.23;7.07;;;;;;;;;;5050578;28;20029;-82
2023/09/12 03:52:40;;;;;;;10.43;7.13;;;;;;;;;;5042562;28;20030;-81
2023/09/12 03:55:06;;;;;;;8.70;7.25;;;;;;;;;;5038449;28;20445;-82
2023/09/12 03:57:32;;;;;;;11.57;8.43;;;;;;;;;;5037602;28;20099;-83
2023/09/12 03:59:57;;;;;;;10.85;7.25;;;;;;;;;;5040464;28;20029;-83
2023/09/12 04:02:24;;;;;;;8.52;6.75;;;;;;;;;;5045817;28;20032;-83
2023/09/12 04:04:49;;;;;;;11.07;7.18;;;;;;;;;;5047717;28;20026;-81
2023/09/12 04:07:15;;;;;;;7.93;6.82;;;;;;;;;;5050354;28;20033;-81
2023/09/12 04:09:40;;;;;;;8.95;6.75;;;;;;;;;;5033202;28;20025;-83
2023/09/12 04:12:06;;;;;;;11.32;9.07;;;;;;;;;;5039203;28;20041;-83
2023/09/12 04:14:32;;;;;;;10.82;7.53;;;;;;;;;;5022212;28;20470;-84
2023/09/12 04:16:58;;;;;;;8.68;6.85;;;;;;;;;;5048887;28;20024;-83
2023/09/12 04:19:25;;;;;;;11.25;7.03;;;;;;;;;;5047213;28;20486;-85
2023/09/12 04:21:51;;;;;;;9.07;6.95;;;;;;;;;;5049426;28;20036;-83
2023/09/12 04:24:17;;;;;;;8.40;6.97;;;;;;;;;;5046144;28;20418;-83
2023/09/12 04:26:43;;;;;;;10.55;7.20;;;;;;;;;;5034762;28;20041;-81
2023/09/12 04:29:10;;;;;;;9.88;7.03;;;;;;;;;;5049532;28;20030;-81
2023/09/12 04:31:36;;;;;;;10.30;6.75;;;;;;;;;;5049791;28;20132;-82
2023/09/12 04:34:01;;;;;;;9.85;6.45;;;;;;;;;;5038065;28;20494;-83
2023/09/12 04:36:27;;;;;;;8.38;6.57;;;;;;;;;;5034774;28;20044;-83
2023/09/12 04:38:52;;;;;;;8.32;6.60;;;;;;;;;;5046020;28;20025;-82
2023/09/12 04:41:18;;;;;;;9.15;6.70;;;;;;;;;;5044352;28;20025;-81
2023/09/12 04:43:44;;;;;;;11.32;7.13;;;;;;;;;;5048942;28;20051;-81
2023/09/12 04:46:11;;;;;;;8.43;6.45;;;;;;;;;;5050781;28;20029;-82
2023/09/12 04:48:37;;;;;;;9.23;6.90;;;;;;;;;;5039970;28;20031;-81
2023/09/12 04:51:03;;;;;;;9.20;6.65;;;;;;;;;;5038129;28;20032;-84
2023/09/12 04:53:34;;;;;;;8.48;6.70;;;;;;;;;;5036355;28;20030;-83
2023/09/12 04:56:06;;;;;;;12.05;6.93;;;;;;;;;;5048615;28;20056;-84
2023/09/12 04:58:31;;;;;;;9.93;7.07;;;;;;;;;;5038976;28;20161;-84
2023/09/12 05:00:57;;;;;;;7.65;6.30;;;;;;;;;;5037957;28;20514;-81
2023/09/12 05:03:23;;;;;;;12.10;6.78;;;;;;;;;;5045804;28;20033;-81
2023/09/12 05:05:49;;;;;;;15.23;7.32;;;;;;;;;;5044566;28;20030;-81
2023/09/12 05:08:17;;;;;;;11.48;7.70;;;;;;;;;;5021883;28;20055;-81
2023/09/12 05:10:46;;;;;;;9.82;7.18;;;;;;;;;;5038184;28;20043;-81
2023/09/12 05:13:12;;;;;;;8.95;6.85;;;;;;;;;;5036266;28;20028;-84
2023/09/12 05:15:39;;;;;;;10.77;7.20;;;;;;;;;;5049339;28;20017;-83
2023/09/12 05:18:06;;;;;;;8.13;7.07;;;;;;;;;;5046171;28;20095;-83
2023/09/12 05:20:32;;;;;;;8.18;6.90;;;;;;;;;;5048906;28;20029;-82
2023/09/12 05:22:58;;;;;;;9.98;6.40;;;;;;;;;;5046225;28;20115;-82
2023/09/12 05:25:23;;;;;;;9.55;6.65;;;;;;;;;;5048774;28;20112;-82
2023/09/12 05:27:49;;;;;;;8.63;6.60;;;;;;;;;;5038871;28;20036;-83
2023/09/12 05:30:14;;;;;;;10.45;6.60;;;;;;;;;;5034284;28;20397;-83
2023/09/12 05:32:43;;;;;;;9.70;6.68;;;;;;;;;;5039957;28;20044;-83
2023/09/12 05:35:09;;;;;;;12.85;7.20;;;;;;;;;;5039669;28;20053;-83
2023/09/12 05:37:35;;;;;;;12.40;6.82;;;;;;;;;;5019523;28;20388;-84
2023/09/12 05:40:00;;;;;;;18.42;7.47;;;;;;;;;;5043209;28;20032;-81
2023/09/12 05:42:26;;;;;;;17.83;7.07;;;;;;;;;;5046356;28;20553;-81
2023/09/12 05:44:53;;;;;;;14.30;6.70;;;;;;;;;;5049044;28;20025;-82
2023/09/12 05:47:22;;;;;;;16.15;6.78;;;;;;;;;;5038996;28;20036;-83
2023/09/12 05:49:48;;;;;;;8.45;6.63;;;;;;;;;;5039535;28;20029;-84
2023/09/12 05:52:14;;;;;;;16.65;7.00;;;;;;;;;;5038056;28;20150;-84
2023/09/12 05:54:41;;;;;;;8.82;7.00;;;;;;;;;;5049471;28;20036;-84
2023/09/12 05:57:07;;;;;;;10.63;6.72;;;;;;;;;;5043946;28;20073;-84
2023/09/12 05:59:36;;;;;;;9.00;6.60;;;;;;;;;;5043016;28;20641;-82
2023/09/12 06:02:02;;;;;;;10.75;6.75;;;;;;;;;;5045260;28;20501;-82
2023/09/12 06:04:27;;;;;;;19.80;6.72;;;;;;;;;;5044866;28;20030;-82
2023/09/12 06:06:53;;;;;;;22.02;7.57;;;;;;;;;;5039777;28;20111;-82
2023/09/12 06:09:18;;;;;;;14.10;7.00;;;;;;;;;;5047091;28;20025;-81
2023/09/12 06:11:44;;;;;;;12.57;6.75;;;;;;;;;;5041163;28;20601;-84
2023/09/12 06:14:09;;;;;;;10.30;7.00;;;;;;;;;;5038316;28;20030;-84
2023/09/12 06:16:35;;;;;;;10.70;6.90;;;;;;;;;;5034260;28;20045;-84
2023/09/12 06:19:00;;;;;;;11.95;7.07;;;;;;;;;;5032742;28;20042;-82
2023/09/12 06:21:26;;;;;;;9.93;6.97;;;;;;;;;;5045459;28;20106;-82
2023/09/12 06:24:08;;;;;;;9.52;6.78;;;;;;;;;;5045107;28;20043;-81
2023/09/12 06:26:34;;;;;;;10.98;7.22;;;;;;;;;;5041726;28;20060;-84
2023/09/12 06:28:59;;;;;;;8.43;6.50;;;;;;;;;;5036155;28;20103;-84
2023/09/12 06:31:25;;;;;;;7.65;6.55;;;;;;;;;;5042596;28;20075;-86
2023/09/12 06:33:50;;;;;;;12.63;6.90;;;;;;;;;;5042094;28;20032;-86
2023/09/12 06:36:16;;;;;;;10.43;6.97;;;;;;;;;;5041442;28;20044;-86
2023/09/12 06:38:41;;;;;;;8.70;6.80;;;;;;;;;;5036686;28;20053;-83
2023/09/12 06:41:06;;;;;;;8.73;6.85;;;;;;;;;;5049986;28;20529;-83
2023/09/12 06:43:32;;;;;;;7.38;6.50;;;;;;;;;;5048835;28;20456;-83
2023/09/12 06:45:57;;;;;;;9.88;6.90;;;;;;;;;;5043672;28;20028;-83
2023/09/12 06:48:23;;;;;;;10.10;7.10;;;;;;;;;;5038648;28;20036;-86
2023/09/12 06:50:50;;;;;;;9.45;6.95;;;;;;;;;;5041912;28;20040;-85
2023/09/12 06:53:15;;;;;;;9.40;6.93;;;;;;;;;;5054844;28;20025;-86
2023/09/12 06:55:41;;;;;;;8.93;7.00;;;;;;;;;;5044738;28;20052;-88
2023/09/12 06:58:07;;;;;;;7.82;6.40;;;;;;;;;;5040568;28;20124;-83
2023/09/12 07:00:33;;;;;;;10.50;6.90;;;;;;;;;;5046663;28;20530;-84
2023/09/12 07:02:58;;;;;;;11.05;7.00;;;;;;;;;;5048226;28;20037;-84
2023/09/12 07:05:24;;;;;;;11.35;6.55;;;;;;;;;;5044913;28;20040;-83
2023/09/12 07:07:49;;;;;;;9.20;7.13;;;;;;;;;;5039826;28;20025;-83
2023/09/12 07:10:15;;;;;;;8.50;6.60;;;;;;;;;;5040404;28;20037;-85
2023/09/12 07:12:40;;;;;;;9.10;7.05;;;;;;;;;;5042576;28;20132;-85
2023/09/12 07:15:06;;;;;;;8.32;6.95;;;;;;;;;;5039865;28;20029;-83
2023/09/12 07:17:32;;;;;;;13.35;6.93;;;;;;;;;;5040079;28;20053;-83
2023/09/12 07:19:57;;;;;;;9.85;6.68;;;;;;;;;;5040509;28;20381;-84
2023/09/12 07:22:23;;;;;;;11.25;7.20;;;;;;;;;;5049741;28;20069;-82
2023/09/12 07:24:48;;;;;;;9.40;7.20;;;;;;;;;;5052155;28;20505;-85
2023/09/12 07:27:14;;;;;;;8.68;6.72;;;;;;;;;;5041296;28;20029;-86
2023/09/12 07:29:39;;;;;;;10.43;7.00;;;;;;;;;;5044806;28;20043;-85
2023/09/12 07:32:05;;;;;;;10.13;7.10;;;;;;;;;;5043225;28;20033;-82
2023/09/12 07:34:30;;;;;;;11.93;7.25;;;;;;;;;;5042449;28;20124;-83
2023/09/12 07:36:56;;;;;;;9.73;6.80;;;;;;;;;;5039781;28;20090;-82
2023/09/12 07:39:21;;;;;;;10.05;7.25;;;;;;;;;;5039873;28;20065;-80
2023/09/12 07:41:47;;;;;;;7.88;6.70;;;;;;;;;;5038988;28;20040;-85
2023/09/12 07:44:15;;;;;;;7.85;6.57;;;;;;;;;;5040117;28;20042;-86
2023/09/12 07:46:41;;;;;;;8.70;6.65;;;;;;;;;;5043252;28;20089;-85
2023/09/12 07:49:08;;;;;;;11.43;6.65;;;;;;;;;;5040241;28;20025;-82
2023/09/12 07:51:33;;;;;;;8.05;6.90;;;;;;;;;;5043393;28;20025;-83
2023/09/12 07:53:59;;;;;;;9.25;7.15;;;;;;;;;;5042875;28;20028;-85
2023/09/12 07:56:24;;;;;;;9.18;6.88;;;;;;;;;;5038520;28;20040;-83
2023/09/12 07:58:50;;;;;;;8.57;6.72;;;;;;;;;;5039585;28;20040;-81
2023/09/12 08:01:15;;;;;;;9.73;7.03;;;;;;;;;;5035268;28;20398;-86
2023/09/12 08:03:42;;;;;;;10.65;6.85;;;;;;;;;;5037818;28;20037;-84
2023/09/12 08:06:08;;;;;;;8.27;6.45;;;;;;;;;;5040022;28;20028;-85
2023/09/12 08:08:34;;;;;;;9.35;6.95;;;;;;;;;;5045249;28;20035;-84
2023/09/12 08:10:59;;;;;;;7.03;6.32;;;;;;;;;;5044203;28;20037;-83
2023/09/12 08:13:29;;;;;;;9.13;6.60;;;;;;;;;;5042062;28;20585;-83
2023/09/12 08:15:56;;;;;;;8.23;6.60;;;;;;;;;;5039227;28;20064;-83
2023/09/12 08:18:21;;;;;;;10.18;6.70;;;;;;;;;;5036066;28;20041;-83
2023/09/12 08:20:47;;;;;;;7.72;6.32;;;;;;;;;;5034636;28;20136;-84
2023/09/12 08:23:12;;;;;;;8.27;6.65;;;;;;;;;;5036649;28;20040;-84
2023/09/12 08:25:39;;;;;;;8.70;6.45;;;;;;;;;;5040194;28;20118;-86
2023/09/12 08:28:05;;;;;;;7.97;6.45;;;;;;;;;;5042629;28;20087;-86
2023/09/12 08:30:30;;;;;;;10.00;6.95;;;;;;;;;;5046193;28;20386;-83
2023/09/12 08:32:56;;;;;;;8.05;6.57;;;;;;;;;;5050492;28;20067;-88
2023/09/12 08:35:22;;;;;;;8.30;6.35;;;;;;;;;;5052720;28;20096;-88
2023/09/12 08:37:47;;;;;;;8.05;6.65;;;;;;;;;;5034452;28;20029;-89
2023/09/12 08:40:13;;;;;;;9.70;6.43;;;;;;;;;;5039384;28;20856;-88
2023/09/12 08:42:44;;;;;;;11.20;6.75;;;;;;;;;;5033837;28;20099;-88
2023/09/12 08:45:15;;;;;;;9.48;6.80;;;;;;;;;;5037228;28;20446;-89
2023/09/12 08:47:43;;;;;;;8.40;6.65;;;;;;;;;;5038775;28;20033;-83
2023/09/12 08:50:13;;;;;;;8.38;6.45;;;;;;;;;;5044338;28;20087;-82
2023/09/12 08:52:40;;;;;;;8.95;6.57;;;;;;;;;;5042562;28;20029;-83
2023/09/12 08:55:05;;;;;;;10.57;6.32;;;;;;;;;;5039749;28;20120;-82
2023/09/12 08:57:33;;;;;;;10.57;6.63;;;;;;;;;;5036358;28;20635;-83
2023/09/12 09:00:05;;;;;;;10.45;6.70;;;;;;;;;;5038166;28;20029;-86
2023/09/12 09:02:32;;;;;;;10.55;6.90;;;;;;;;;;5036400;28;20056;-86
2023/09/12 09:04:59;;;;;;;12.15;6.63;;;;;;;;;;5042397;28;20029;-85
2023/09/12 09:07:25;;;;;;;10.93;6.47;;;;;;;;;;5039040;28;20037;-85
2023/09/12 09:09:53;;;;;;;10.70;6.38;;;;;;;;;;5047322;28;20025;-83
2023/09/12 09:12:19;;;;;;;11.52;6.72;;;;;;;;;;5043567;28;20038;-83
2023/09/12 09:14:45;;;;;;;9.63;6.75;;;;;;;;;;5041463;28;20033;-83
2023/09/12 09:17:12;;;;;;;12.60;6.10;;;;;;;;;;5036141;28;20017;-84
2023/09/12 09:19:45;;;;;;;12.52;6.40;;;;;;;;;;5039151;28;20407;-84
2023/09/12 09:22:10;;;;;;;10.63;6.40;;;;;;;;;;5034730;28;20052;-85
2023/09/12 09:24:36;;;;;;;15.63;6.43;;;;;;;;;;5037461;28;20033;-86
2023/09/12 09:27:01;;;;;;;7.20;6.47;;;;;;;;;;5033517;28;20567;-84
2023/09/12 09:29:31;;;;;;;7.68;6.15;;;;;;;;;;5047606;28;20024;-83
2023/09/12 09:31:58;;;;;;;8.05;6.22;;;;;;;;;;5038067;28;20037;-83
2023/09/12 09:34:24;;;;;;;9.00;6.60;;;;;;;;;;5041945;28;20042;-83
2023/09/12 09:36:54;;;;;;;7.25;5.63;;;;;;;;;;5036666;28;20033;-83
2023/09/12 09:39:22;;;;;;;7.55;6.15;;;;;;;;;;5039062;28;20037;-81
2023/09/12 09:41:49;;;;;;;9.13;6.25;;;;;;;;;;5039607;28;20037;-83
2023/09/12 09:44:16;;;;;;;8.23;6.30;;;;;;;;;;5035606;28;20110;-85
2023/09/12 09:46:46;;;;;;;6.90;5.95;;;;;;;;;;5037679;28;20129;-85
2023/09/12 09:49:15;;;;;;;9.82;6.18;;;;;;;;;;5043746;28;20052;-85
2023/09/12 09:51:44;;;;;;;8.68;6.13;;;;;;;;;;5044100;28;20033;-85
2023/09/12 09:54:11;;;;;;;8.43;6.40;;;;;;;;;;5041710;28;20049;-83
2023/09/12 09:56:57;;;;;;;8.23;6.20;;;;;;;;;;5037844;28;20033;-84
2023/09/12 09:59:25;;;;;;;10.52;5.80;;;;;;;;;;5039542;28;20045;-84
2023/09/12 10:01:55;;;;;;;10.27;6.40;;;;;;;;;;5037497;28;20102;-83
2023/09/12 10:04:23;;;;;;;8.70;6.30;;;;;;;;;;5043315;28;20045;-83
2023/09/12 10:06:49;;;;;;;11.70;6.10;;;;;;;;;;5045814;28;20040;-83
2023/09/12 10:09:16;;;;;;;12.82;6.30;;;;;;;;;;5049249;28;20087;-82
2023/09/12 10:11:43;;;;;;;11.45;6.50;;;;;;;;;;5042989;28;20186;-84
2023/09/12 10:14:11;;;;;;;8.35;6.28;;;;;;;;;;5039765;28;20470;-84
2023/09/12 10:16:45;;;;;;;7.60;6.28;;;;;;;;;;5035456;28;20048;-84
2023/09/12 10:19:23;;;;;;;7.95;6.28;;;;;;;;;;5039675;28;20056;-85
2023/09/12 10:22:04;;;;;;;10.30;5.95;;;;;;;;;;5034767;28;20037;-85
2023/09/12 10:24:30;;;;;;;10.40;6.07;;;;;;;;;;5037135;28;20041;-85
2023/09/12 10:26:56;;;;;;;8.73;6.72;;;;;;;;;;5033460;28;20033;-84
2023/09/12 10:29:22;;;;;;;10.85;6.35;;;;;;;;;;5047847;28;20029;-87
2023/09/12 10:31:49;;;;;;;6.97;5.88;;;;;;;;;;5044773;28;20037;-83
2023/09/12 10:34:15;;;;;;;8.95;6.20;;;;;;;;;;5039403;28;20104;-85
2023/09/12 10:36:42;;;;;;;7.97;6.00;;;;;;;;;;5035496;28;20025;-84
2023/09/12 10:39:09;;;;;;;8.25;6.13;;;;;;;;;;5038247;28;20090;-83
2023/09/12 10:41:39;;;;;;;8.27;5.93;;;;;;;;;;5034419;28;20025;-86
2023/09/12 10:44:14;;;;;;;10.20;6.63;;;;;;;;;;5036141;28;20040;-86
2023/09/12 10:46:40;;;;;;;8.63;6.53;;;;;;;;;;5036542;28;20037;-85
2023/09/12 10:49:08;;;;;;;10.48;6.40;;;;;;;;;;5049439;28;20049;-87
2023/09/12 10:51:38;;;;;;;8.00;6.30;;;;;;;;;;5046475;28;20033;-82
2023/09/12 10:54:04;;;;;;;9.05;6.40;;;;;;;;;;5039040;28;20131;-82
2023/09/12 10:56:32;;;;;;;11.00;6.57;;;;;;;;;;5033756;28;20112;-81
2023/09/12 10:59:06;;;;;;;11.52;6.70;;;;;;;;;;5066407;22;20454;-88
2023/09/12 11:01:37;;;;;;;9.98;6.38;;;;;;;;;;5052350;28;20109;-87
2023/09/12 11:04:28;;;;;;;8.85;6.78;;;;;;;;;;5040407;28;20025;-87
2023/09/12 11:06:54;;;;;;;9.25;6.35;;;;;;;;;;5049025;28;20397;-87
2023/09/12 11:09:24;;;;;;;10.18;7.00;;;;;;;;;;5060905;28;20029;-87
2023/09/12 11:11:59;;;;;;;8.65;6.40;;;;;;;;;;5058792;28;20507;-85
2023/09/12 11:14:26;;;;;;;6.95;6.22;;;;;;;;;;5045047;28;20044;-85
2023/09/12 11:17:07;;;;;;;8.43;6.65;;;;;;;;;;5055925;28;20044;-86
2023/09/12 11:19:52;;;;;;;10.35;6.45;;;;;;;;;;5057440;28;20020;-86
2023/09/12 11:22:30;;;;;;;10.55;7.15;;;;;;;;;;5054218;28;20037;-87
2023/09/12 11:24:57;;;;;;;11.82;7.22;;;;;;;;;;5055043;28;20037;-87
2023/09/12 11:27:32;;;;;;;8.75;7.60;;;;;;;;;;5045004;28;20515;-86
2023/09/12 11:30:04;;;;;;;10.25;7.22;;;;;;;;;;5064758;28;20382;-87
2023/09/12 11:32:36;;;;;;;16.13;7.13;;;;;;;;;;5044044;28;20032;-85
2023/09/12 11:35:08;;;;;;;7.70;6.90;;;;;;;;;;5027727;28;20046;-86
2023/09/12 11:37:37;;;;;;;8.40;7.10;;;;;;;;;;5060882;28;20025;-85
2023/09/12 11:40:16;;;;;;;8.82;7.40;;;;;;;;;;5050453;28;20386;-86
2023/09/12 11:42:43;;;;;;;9.95;6.90;;;;;;;;;;5044869;28;20398;-87
2023/09/12 11:45:12;;;;;;;10.80;7.13;;;;;;;;;;5042106;28;20033;-88
2023/09/12 11:47:45;;;;;;;11.57;7.05;;;;;;;;;;5050106;28;20034;-88
2023/09/12 11:50:35;;;;;;;9.20;7.10;;;;;;;;;;5062150;28;20037;-86
2023/09/12 11:53:09;;;;;;;8.80;6.63;;;;;;;;;;5051988;28;20045;-86
2023/09/12 11:55:44;;;;;;;10.80;6.80;;;;;;;;;;5048313;28;20028;-87
2023/09/12 11:58:11;;;;;;;9.18;6.53;;;;;;;;;;5055096;28;20059;-85
2023/09/12 12:00:37;;;;;;;7.75;6.38;;;;;;;;;;5050504;28;20095;-87
2023/09/12 12:03:04;;;;;;;10.95;6.60;;;;;;;;;;5042255;28;20025;-86
2023/09/12 12:05:29;;;;;;;10.00;6.80;;;;;;;;;;5042115;28;20115;-88
2023/09/12 12:07:55;;;;;;;8.20;6.70;;;;;;;;;;5067736;28;20124;-87
2023/09/12 12:10:20;;;;;;;10.73;7.05;;;;;;;;;;5061088;28;20087;-86
2023/09/12 12:12:46;;;;;;;8.65;6.38;;;;;;;;;;5056594;28;20057;-88
2023/09/12 12:15:12;;;;;;;13.30;6.97;;;;;;;;;;5048033;28;20123;-87
2023/09/12 12:17:40;;;;;;;12.43;6.85;;;;;;;;;;5064290;28;20040;-87
2023/09/12 12:20:11;;;;;;;10.50;6.97;;;;;;;;;;5049999;28;20037;-84
2023/09/12 12:22:38;;;;;;;10.95;6.97;;;;;;;;;;5044218;28;20040;-87
2023/09/12 12:25:11;;;;;;;13.18;6.78;;;;;;;;;;5035769;28;20034;-87
2023/09/12 12:27:38;;;;;;;11.57;7.00;;;;;;;;;;5066507;28;20428;-88
2023/09/12 12:30:09;;;;;;;7.63;6.80;;;;;;;;;;5060348;28;20041;-87
2023/09/12 12:32:39;;;;;;;9.32;6.50;;;;;;;;;;5057547;28;20675;-86
2023/09/12 12:35:07;;;;;;;8.60;6.72;;;;;;;;;;5050265;28;20029;-88
2023/09/12 12:37:32;;;;;;;12.10;6.85;;;;;;;;;;5070320;28;20089;-86
2023/09/12 12:39:59;;;;;;;9.13;6.80;;;;;;;;;;5050219;28;20029;-87
2023/09/12 12:42:33;;;;;;;10.57;6.55;;;;;;;;;;5043998;28;20072;-89
2023/09/12 12:44:59;;;;;;;10.02;6.75;;;;;;;;;;5041587;28;20398;-87
2023/09/12 12:47:25;;;;;;;8.48;6.82;;;;;;;;;;5059439;28;20037;-88
2023/09/12 12:49:52;;;;;;;8.23;6.55;;;;;;;;;;5060844;28;20100;-86
2023/09/12 12:52:25;;;;;;;8.85;6.28;;;;;;;;;;5056397;28;20036;-85
2023/09/12 12:54:52;;;;;;;;;;;;;;;;;;5049562;28;20096;-85
2023/09/12 12:57:21;;;;;;;12.65;6.70;;;;;;;;;;5063347;28;19908;-87
2023/09/12 12:59:50;;;;;;;10.23;7.05;;;;;;;;;;5055257;28;20069;-87
2023/09/12 13:02:16;;;;;;;9.52;7.13;;;;;;;;;;5046918;28;20030;-86
2023/09/12 13:04:42;;;;;;;11.00;7.10;;;;;;;;;;5047180;28;20029;-88
2023/09/12 13:07:08;;;;;;;9.55;6.80;;;;;;;;;;5058880;28;20597;-86
2023/09/12 13:09:33;;;;;;;9.38;6.70;;;;;;;;;;5065556;28;20108;-88
2023/09/12 13:11:59;;;;;;;8.68;6.55;;;;;;;;;;5060808;28;20024;-86
2023/09/12 13:14:30;;;;;;;11.10;6.85;;;;;;;;;;5055551;28;20040;-86
2023/09/12 13:16:58;;;;;;;7.97;6.40;;;;;;;;;;5062450;28;20494;-86
2023/09/12 13:19:24;;;;;;;9.55;6.45;;;;;;;;;;5056597;28;20040;-87
2023/09/12 13:21:50;;;;;;;7.93;6.50;;;;;;;;;;5050201;28;20537;-87
2023/09/12 13:24:16;;;;;;;8.88;6.25;;;;;;;;;;5046369;28;20072;-87
2023/09/12 13:26:41;;;;;;;10.00;6.75;;;;;;;;;;5053709;28;20393;-86
2023/09/12 13:29:06;;;;;;;12.00;6.68;;;;;;;;;;5060224;28;20036;-86
2023/09/12 13:31:32;;;;;;;10.15;6.82;;;;;;;;;;5054734;28;20090;-86
2023/09/12 13:33:57;;;;;;;11.93;6.75;;;;;;;;;;5053027;28;20032;-87
2023/09/12 13:36:26;;;;;;;8.93;6.60;;;;;;;;;;5073002;28;20649;-88
2023/09/12 13:38:51;;;;;;;11.07;6.35;;;;;;;;;;5056640;28;20120;-86
2023/09/12 13:41:18;;;;;;;9.13;6.72;;;;;;;;;;5048874;28;20067;-87
2023/09/12 13:43:46;;;;;;;8.70;7.00;;;;;;;;;;5046765;28;20040;-88
2023/09/12 13:46:12;;;;;;;8.38;6.40;;;;;;;;;;5056047;28;20033;-87
2023/09/12 13:48:37;;;;;;;10.85;6.88;;;;;;;;;;5059911;28;20119;-85
2023/09/12 13:51:03;;;;;;;9.00;6.75;;;;;;;;;;5063976;28;20036;-86
2023/09/12 13:53:28;;;;;;;8.25;6.70;;;;;;;;;;5058670;28;20035;-89
2023/09/12 13:55:56;;;;;;;11.95;6.72;;;;;;;;;;5060630;28;20028;-86
2023/09/12 13:58:22;;;;;;;7.55;6.70;;;;;;;;;;5058984;28;20028;-86
2023/09/12 14:00:48;;;;;;;7.65;6.45;;;;;;;;;;5045489;28;20422;-89
2023/09/12 14:03:14;;;;;;;7.80;6.50;;;;;;;;;;5062085;28;20037;-88
2023/09/12 14:05:40;;;;;;;10.40;6.60;;;;;;;;;;5065929;28;20118;-87
2023/09/12 14:08:05;;;;;;;8.50;6.57;;;;;;;;;;5064900;28;20038;-84
2023/09/12 14:10:31;;;;;;;7.45;6.70;;;;;;;;;;5064393;28;20033;-87
2023/09/12 14:12:56;;;;;;;8.88;6.55;;;;;;;;;;5054929;28;20038;-86
2023/09/12 14:15:22;;;;;;;10.70;6.63;;;;;;;;;;5066929;28;20029;-85
2023/09/12 14:17:47;;;;;;;11.45;6.60;;;;;;;;;;5060495;28;20040;-86
2023/09/12 14:20:15;;;;;;;7.60;6.70;;;;;;;;;;5050950;28;20037;-85
2023/09/12 14:22:42;;;;;;;7.75;6.82;;;;;;;;;;5043174;28;20131;-88
2023/09/12 14:25:14;;;;;;;8.43;7.13;;;;;;;;;;5058719;28;20093;-84
2023/09/12 14:27:42;;;;;;;11.60;6.87;;;;;;;;;;5030990;28;20052;-85
2023/09/12 14:30:08;;;;;;;10.32;6.53;;;;;;;;;;5059121;28;20029;-88
2023/09/12 14:32:34;;;;;;;10.63;6.80;;;;;;;;;;5056412;28;20033;-85
2023/09/12 14:34:59;;;;;;;8.18;6.75;;;;;;;;;;5062794;28;20044;-84
2023/09/12 14:37:27;;;;;;;8.95;6.25;;;;;;;;;;5056609;28;20487;-85